sensor_id;sensor_type;location;lat;lon;timestamp;temperature;humidity
53053;DHT22;38934;52.690;6.184;2023-06-14T00:00:38;17.10;76.10
53053;DHT22;38934;52.690;6.184;2023-06-14T00:03:07;17.10;76.30
53053;DHT22;38934;52.690;6.184;2023-06-14T00:05:35;17.10;77.00
53053;DHT22;38934;52.690;6.184;2023-06-14T00:08:06;17.00;76.70
53053;DHT22;38934;52.690;6.184;2023-06-14T00:10:38;17.00;76.90
53053;DHT22;38934;52.690;6.184;2023-06-14T00:13:07;16.90;77.40
53053;DHT22;38934;52.690;6.184;2023-06-14T00:15:33;17.00;77.60
53053;DHT22;38934;52.690;6.184;2023-06-14T00:17:59;16.90;77.50
53053;DHT22;38934;52.690;6.184;2023-06-14T00:20:28;16.80;78.10
53053;DHT22;38934;52.690;6.184;2023-06-14T00:22:54;16.80;77.60
53053;DHT22;38934;52.690;6.184;2023-06-14T00:25:22;16.80;77.80
53053;DHT22;38934;52.690;6.184;2023-06-14T00:27:48;16.70;77.60
53053;DHT22;38934;52.690;6.184;2023-06-14T00:30:14;16.70;77.40
53053;DHT22;38934;52.690;6.184;2023-06-14T00:32:40;16.60;77.70
53053;DHT22;38934;52.690;6.184;2023-06-14T00:35:08;16.60;78.30
53053;DHT22;38934;52.690;6.184;2023-06-14T00:37:34;16.50;77.90
53053;DHT22;38934;52.690;6.184;2023-06-14T00:39:59;16.50;78.30
53053;DHT22;38934;52.690;6.184;2023-06-14T00:42:26;16.50;78.80
53053;DHT22;38934;52.690;6.184;2023-06-14T00:44:52;16.40;79.20
53053;DHT22;38934;52.690;6.184;2023-06-14T00:47:17;16.30;79.60
53053;DHT22;38934;52.690;6.184;2023-06-14T00:49:45;16.30;80.60
53053;DHT22;38934;52.690;6.184;2023-06-14T00:52:11;16.20;80.40
53053;DHT22;38934;52.690;6.184;2023-06-14T00:54:39;16.20;80.80
53053;DHT22;38934;52.690;6.184;2023-06-14T00:57:05;16.10;81.40
53053;DHT22;38934;52.690;6.184;2023-06-14T00:59:31;16.00;82.10
53053;DHT22;38934;52.690;6.184;2023-06-14T01:01:57;16.00;83.30
53053;DHT22;38934;52.690;6.184;2023-06-14T01:04:22;16.00;83.50
53053;DHT22;38934;52.690;6.184;2023-06-14T01:07:05;15.90;84.50
53053;DHT22;38934;52.690;6.184;2023-06-14T01:15:17;15.80;87.70
53053;DHT22;38934;52.690;6.184;2023-06-14T01:17:45;15.80;86.80
53053;DHT22;38934;52.690;6.184;2023-06-14T01:20:12;15.80;87.70
53053;DHT22;38934;52.690;6.184;2023-06-14T01:22:59;15.70;88.20
53053;DHT22;38934;52.690;6.184;2023-06-14T01:25:25;15.70;89.90
53053;DHT22;38934;52.690;6.184;2023-06-14T01:30:24;15.60;90.50
53053;DHT22;38934;52.690;6.184;2023-06-14T01:32:51;15.50;91.70
53053;DHT22;38934;52.690;6.184;2023-06-14T01:35:17;15.50;91.00
53053;DHT22;38934;52.690;6.184;2023-06-14T01:37:43;15.60;92.10
53053;DHT22;38934;52.690;6.184;2023-06-14T01:40:10;15.40;92.70
53053;DHT22;38934;52.690;6.184;2023-06-14T01:42:38;15.30;93.50
53053;DHT22;38934;52.690;6.184;2023-06-14T01:45:05;15.40;94.20
53053;DHT22;38934;52.690;6.184;2023-06-14T01:47:31;15.30;94.60
53053;DHT22;38934;52.690;6.184;2023-06-14T01:49:58;15.20;95.10
53053;DHT22;38934;52.690;6.184;2023-06-14T01:52:24;15.20;95.60
53053;DHT22;38934;52.690;6.184;2023-06-14T01:54:50;15.30;96.60
53053;DHT22;38934;52.690;6.184;2023-06-14T01:57:16;15.20;96.90
53053;DHT22;38934;52.690;6.184;2023-06-14T01:59:41;15.20;97.50
53053;DHT22;38934;52.690;6.184;2023-06-14T02:02:07;15.20;97.70
53053;DHT22;38934;52.690;6.184;2023-06-14T02:04:33;15.10;98.40
53053;DHT22;38934;52.690;6.184;2023-06-14T02:06:58;15.10;99.20
53053;DHT22;38934;52.690;6.184;2023-06-14T02:09:24;15.00;99.40
53053;DHT22;38934;52.690;6.184;2023-06-14T02:11:50;15.00;99.90
53053;DHT22;38934;52.690;6.184;2023-06-14T02:14:16;15.00;99.90
53053;DHT22;38934;52.690;6.184;2023-06-14T02:16:42;15.00;99.90
53053;DHT22;38934;52.690;6.184;2023-06-14T02:19:15;15.00;99.90
53053;DHT22;38934;52.690;6.184;2023-06-14T02:21:41;14.90;99.90
53053;DHT22;38934;52.690;6.184;2023-06-14T02:24:07;14.90;99.90
53053;DHT22;38934;52.690;6.184;2023-06-14T02:26:32;14.90;99.90
53053;DHT22;38934;52.690;6.184;2023-06-14T02:28:58;14.90;99.90
53053;DHT22;38934;52.690;6.184;2023-06-14T02:31:24;14.80;99.90
53053;DHT22;38934;52.690;6.184;2023-06-14T02:33:49;14.80;99.90
53053;DHT22;38934;52.690;6.184;2023-06-14T02:36:15;14.80;99.90
53053;DHT22;38934;52.690;6.184;2023-06-14T02:38:41;14.80;99.90
53053;DHT22;38934;52.690;6.184;2023-06-14T02:41:06;14.70;99.90
53053;DHT22;38934;52.690;6.184;2023-06-14T02:43:32;14.70;99.90
53053;DHT22;38934;52.690;6.184;2023-06-14T02:45:57;14.60;99.90
53053;DHT22;38934;52.690;6.184;2023-06-14T02:48:23;14.60;99.90
53053;DHT22;38934;52.690;6.184;2023-06-14T02:50:49;14.60;99.90
53053;DHT22;38934;52.690;6.184;2023-06-14T02:53:15;14.60;99.90
53053;DHT22;38934;52.690;6.184;2023-06-14T02:55:41;14.50;99.90
53053;DHT22;38934;52.690;6.184;2023-06-14T02:58:07;14.50;99.90
53053;DHT22;38934;52.690;6.184;2023-06-14T03:00:32;14.50;99.90
53053;DHT22;38934;52.690;6.184;2023-06-14T03:02:58;14.50;99.90
53053;DHT22;38934;52.690;6.184;2023-06-14T03:05:27;14.50;99.90
53053;DHT22;38934;52.690;6.184;2023-06-14T03:07:53;14.40;99.90
53053;DHT22;38934;52.690;6.184;2023-06-14T03:10:19;14.40;99.90
53053;DHT22;38934;52.690;6.184;2023-06-14T03:12:45;14.40;99.90
53053;DHT22;38934;52.690;6.184;2023-06-14T03:15:10;14.40;99.90
53053;DHT22;38934;52.690;6.184;2023-06-14T03:17:38;14.40;99.90
53053;DHT22;38934;52.690;6.184;2023-06-14T03:20:04;14.40;99.90
53053;DHT22;38934;52.690;6.184;2023-06-14T03:22:31;14.40;99.90
53053;DHT22;38934;52.690;6.184;2023-06-14T03:24:58;14.40;99.90
53053;DHT22;38934;52.690;6.184;2023-06-14T03:27:24;14.40;99.90
53053;DHT22;38934;52.690;6.184;2023-06-14T03:29:51;14.50;99.90
53053;DHT22;38934;52.690;6.184;2023-06-14T03:32:16;14.40;99.90
53053;DHT22;38934;52.690;6.184;2023-06-14T03:34:42;14.30;99.90
53053;DHT22;38934;52.690;6.184;2023-06-14T03:37:08;14.40;99.90
53053;DHT22;38934;52.690;6.184;2023-06-14T03:39:33;14.40;99.90
53053;DHT22;38934;52.690;6.184;2023-06-14T03:41:59;14.40;99.90
53053;DHT22;38934;52.690;6.184;2023-06-14T03:44:26;14.40;99.90
53053;DHT22;38934;52.690;6.184;2023-06-14T03:46:52;14.50;99.90
53053;DHT22;38934;52.690;6.184;2023-06-14T03:49:18;14.50;99.90
53053;DHT22;38934;52.690;6.184;2023-06-14T03:51:44;14.50;99.90
53053;DHT22;38934;52.690;6.184;2023-06-14T03:54:10;14.60;99.90
53053;DHT22;38934;52.690;6.184;2023-06-14T03:56:35;14.50;99.90
53053;DHT22;38934;52.690;6.184;2023-06-14T03:59:01;14.50;99.90
53053;DHT22;38934;52.690;6.184;2023-06-14T04:01:27;14.60;99.90
53053;DHT22;38934;52.690;6.184;2023-06-14T04:03:58;14.60;99.90
53053;DHT22;38934;52.690;6.184;2023-06-14T04:06:24;14.50;99.90
53053;DHT22;38934;52.690;6.184;2023-06-14T04:08:51;14.60;99.90
53053;DHT22;38934;52.690;6.184;2023-06-14T04:11:17;14.60;99.90
53053;DHT22;38934;52.690;6.184;2023-06-14T04:13:43;14.60;99.90
53053;DHT22;38934;52.690;6.184;2023-06-14T04:16:09;14.70;99.90
53053;DHT22;38934;52.690;6.184;2023-06-14T04:18:35;14.70;99.90
53053;DHT22;38934;52.690;6.184;2023-06-14T04:21:00;14.80;99.90
53053;DHT22;38934;52.690;6.184;2023-06-14T04:23:26;14.80;99.90
53053;DHT22;38934;52.690;6.184;2023-06-14T04:25:53;14.70;99.90
53053;DHT22;38934;52.690;6.184;2023-06-14T04:28:19;14.80;99.90
53053;DHT22;38934;52.690;6.184;2023-06-14T04:30:45;14.90;99.90
53053;DHT22;38934;52.690;6.184;2023-06-14T04:33:12;14.90;99.90
53053;DHT22;38934;52.690;6.184;2023-06-14T04:35:39;14.90;99.90
53053;DHT22;38934;52.690;6.184;2023-06-14T04:38:06;15.00;99.90
53053;DHT22;38934;52.690;6.184;2023-06-14T04:40:35;15.00;99.90
53053;DHT22;38934;52.690;6.184;2023-06-14T04:43:02;15.00;99.90
53053;DHT22;38934;52.690;6.184;2023-06-14T04:45:32;15.10;99.90
53053;DHT22;38934;52.690;6.184;2023-06-14T04:47:59;15.10;99.90
53053;DHT22;38934;52.690;6.184;2023-06-14T04:50:25;15.20;99.90
53053;DHT22;38934;52.690;6.184;2023-06-14T04:52:50;15.30;99.90
53053;DHT22;38934;52.690;6.184;2023-06-14T04:55:17;15.40;99.90
53053;DHT22;38934;52.690;6.184;2023-06-14T04:57:44;15.50;99.90
53053;DHT22;38934;52.690;6.184;2023-06-14T05:00:10;15.60;99.90
53053;DHT22;38934;52.690;6.184;2023-06-14T05:02:37;15.90;99.90
53053;DHT22;38934;52.690;6.184;2023-06-14T05:05:04;16.30;99.90
53053;DHT22;38934;52.690;6.184;2023-06-14T05:07:32;17.30;99.90
53053;DHT22;38934;52.690;6.184;2023-06-14T05:09:59;18.90;99.90
53053;DHT22;38934;52.690;6.184;2023-06-14T05:12:25;20.30;99.90
53053;DHT22;38934;52.690;6.184;2023-06-14T05:14:50;21.60;99.90
53053;DHT22;38934;52.690;6.184;2023-06-14T05:17:16;22.50;99.40
53053;DHT22;38934;52.690;6.184;2023-06-14T05:19:42;22.60;95.70
53053;DHT22;38934;52.690;6.184;2023-06-14T05:22:08;22.30;94.20
53053;DHT22;38934;52.690;6.184;2023-06-14T05:24:34;21.80;93.60
53053;DHT22;38934;52.690;6.184;2023-06-14T05:27:00;21.00;93.60
53053;DHT22;38934;52.690;6.184;2023-06-14T05:29:25;20.30;94.30
53053;DHT22;38934;52.690;6.184;2023-06-14T05:31:53;19.80;95.20
53053;DHT22;38934;52.690;6.184;2023-06-14T05:34:18;19.30;96.20
53053;DHT22;38934;52.690;6.184;2023-06-14T05:36:44;19.00;97.40
53053;DHT22;38934;52.690;6.184;2023-06-14T05:39:10;18.70;99.10
53053;DHT22;38934;52.690;6.184;2023-06-14T05:41:36;18.50;99.90
53053;DHT22;38934;52.690;6.184;2023-06-14T05:44:01;18.70;99.90
53053;DHT22;38934;52.690;6.184;2023-06-14T05:46:27;19.50;99.90
53053;DHT22;38934;52.690;6.184;2023-06-14T05:48:54;20.70;99.90
53053;DHT22;38934;52.690;6.184;2023-06-14T05:51:20;22.20;98.10
53053;DHT22;38934;52.690;6.184;2023-06-14T05:53:46;23.40;94.40
53053;DHT22;38934;52.690;6.184;2023-06-14T05:56:13;24.50;90.90
53053;DHT22;38934;52.690;6.184;2023-06-14T05:58:39;25.20;84.10
53053;DHT22;38934;52.690;6.184;2023-06-14T06:01:05;25.80;79.80
53053;DHT22;38934;52.690;6.184;2023-06-14T06:03:31;26.30;76.40
53053;DHT22;38934;52.690;6.184;2023-06-14T06:05:56;27.10;74.30
53053;DHT22;38934;52.690;6.184;2023-06-14T06:08:22;27.40;70.10
53053;DHT22;38934;52.690;6.184;2023-06-14T06:10:47;27.80;68.50
53053;DHT22;38934;52.690;6.184;2023-06-14T06:13:13;28.20;66.10
53053;DHT22;38934;52.690;6.184;2023-06-14T06:15:39;28.70;64.30
53053;DHT22;38934;52.690;6.184;2023-06-14T06:18:04;28.80;62.80
53053;DHT22;38934;52.690;6.184;2023-06-14T06:20:30;29.10;61.10
53053;DHT22;38934;52.690;6.184;2023-06-14T06:22:59;29.20;59.70
53053;DHT22;38934;52.690;6.184;2023-06-14T06:25:26;29.40;58.60
53053;DHT22;38934;52.690;6.184;2023-06-14T06:27:52;29.30;57.80
53053;DHT22;38934;52.690;6.184;2023-06-14T06:30:19;29.30;57.40
53053;DHT22;38934;52.690;6.184;2023-06-14T06:32:45;29.40;57.30
53053;DHT22;38934;52.690;6.184;2023-06-14T06:35:11;29.60;57.00
53053;DHT22;38934;52.690;6.184;2023-06-14T06:37:38;29.50;56.00
53053;DHT22;38934;52.690;6.184;2023-06-14T06:40:04;29.80;55.60
53053;DHT22;38934;52.690;6.184;2023-06-14T06:42:31;30.10;55.40
53053;DHT22;38934;52.690;6.184;2023-06-14T06:44:57;30.10;54.20
53053;DHT22;38934;52.690;6.184;2023-06-14T06:47:23;30.30;53.80
53053;DHT22;38934;52.690;6.184;2023-06-14T06:49:50;30.10;53.20
53053;DHT22;38934;52.690;6.184;2023-06-14T06:52:16;30.10;53.30
53053;DHT22;38934;52.690;6.184;2023-06-14T06:54:41;30.20;53.00
53053;DHT22;38934;52.690;6.184;2023-06-14T06:57:07;30.10;52.80
53053;DHT22;38934;52.690;6.184;2023-06-14T06:59:33;30.20;52.80
53053;DHT22;38934;52.690;6.184;2023-06-14T07:01:59;30.00;52.70
53053;DHT22;38934;52.690;6.184;2023-06-14T07:04:24;30.00;52.30
53053;DHT22;38934;52.690;6.184;2023-06-14T07:06:50;29.80;52.10
53053;DHT22;38934;52.690;6.184;2023-06-14T07:09:16;29.70;51.90
53053;DHT22;38934;52.690;6.184;2023-06-14T07:11:43;29.60;51.60
53053;DHT22;38934;52.690;6.184;2023-06-14T07:14:08;29.40;51.10
53053;DHT22;38934;52.690;6.184;2023-06-14T07:16:34;29.20;51.60
53053;DHT22;38934;52.690;6.184;2023-06-14T07:19:01;29.10;51.70
53053;DHT22;38934;52.690;6.184;2023-06-14T07:21:26;29.20;52.00
53053;DHT22;38934;52.690;6.184;2023-06-14T07:23:55;29.20;51.90
53053;DHT22;38934;52.690;6.184;2023-06-14T07:26:21;29.70;52.50
53053;DHT22;38934;52.690;6.184;2023-06-14T07:28:47;29.80;52.00
53053;DHT22;38934;52.690;6.184;2023-06-14T07:31:14;29.80;50.90
53053;DHT22;38934;52.690;6.184;2023-06-14T07:33:41;29.80;50.70
53053;DHT22;38934;52.690;6.184;2023-06-14T07:36:07;30.00;51.00
53053;DHT22;38934;52.690;6.184;2023-06-14T07:38:33;30.00;50.10
53053;DHT22;38934;52.690;6.184;2023-06-14T07:40:59;30.00;50.10
53053;DHT22;38934;52.690;6.184;2023-06-14T07:43:24;30.10;50.30
53053;DHT22;38934;52.690;6.184;2023-06-14T07:45:50;30.40;50.30
53053;DHT22;38934;52.690;6.184;2023-06-14T07:48:15;30.60;49.70
53053;DHT22;38934;52.690;6.184;2023-06-14T07:50:41;30.60;48.80
53053;DHT22;38934;52.690;6.184;2023-06-14T07:53:06;30.60;48.60
53053;DHT22;38934;52.690;6.184;2023-06-14T07:55:32;30.70;48.10
53053;DHT22;38934;52.690;6.184;2023-06-14T07:58:02;30.40;47.80
53053;DHT22;38934;52.690;6.184;2023-06-14T08:00:28;30.50;48.30
53053;DHT22;38934;52.690;6.184;2023-06-14T08:02:53;30.50;48.00
53053;DHT22;38934;52.690;6.184;2023-06-14T08:05:24;31.00;48.60
53053;DHT22;38934;52.690;6.184;2023-06-14T08:07:50;31.30;48.60
53053;DHT22;38934;52.690;6.184;2023-06-14T08:10:15;31.40;48.00
53053;DHT22;38934;52.690;6.184;2023-06-14T08:12:41;31.70;47.70
53053;DHT22;38934;52.690;6.184;2023-06-14T08:15:07;31.50;47.20
53053;DHT22;38934;52.690;6.184;2023-06-14T08:17:33;31.50;46.80
53053;DHT22;38934;52.690;6.184;2023-06-14T08:19:58;31.40;46.80
53053;DHT22;38934;52.690;6.184;2023-06-14T08:22:24;31.40;46.90
53053;DHT22;38934;52.690;6.184;2023-06-14T08:24:51;31.80;47.20
53053;DHT22;38934;52.690;6.184;2023-06-14T08:27:18;31.90;46.20
53053;DHT22;38934;52.690;6.184;2023-06-14T08:29:44;31.80;45.80
53053;DHT22;38934;52.690;6.184;2023-06-14T08:32:10;31.50;46.20
53053;DHT22;38934;52.690;6.184;2023-06-14T08:34:36;31.40;46.30
53053;DHT22;38934;52.690;6.184;2023-06-14T08:37:01;31.50;46.30
53053;DHT22;38934;52.690;6.184;2023-06-14T08:39:27;31.30;45.70
53053;DHT22;38934;52.690;6.184;2023-06-14T08:41:53;30.90;45.40
53053;DHT22;38934;52.690;6.184;2023-06-14T08:44:19;30.60;45.70
53053;DHT22;38934;52.690;6.184;2023-06-14T08:46:47;30.30;45.40
53053;DHT22;38934;52.690;6.184;2023-06-14T08:49:13;30.40;45.30
53053;DHT22;38934;52.690;6.184;2023-06-14T08:51:42;30.30;45.10
53053;DHT22;38934;52.690;6.184;2023-06-14T08:54:10;30.40;44.90
53053;DHT22;38934;52.690;6.184;2023-06-14T08:56:38;30.40;44.90
53053;DHT22;38934;52.690;6.184;2023-06-14T08:59:04;30.30;44.70
53053;DHT22;38934;52.690;6.184;2023-06-14T09:01:36;30.40;45.10
53053;DHT22;38934;52.690;6.184;2023-06-14T09:04:03;30.40;45.10
53053;DHT22;38934;52.690;6.184;2023-06-14T09:06:31;30.30;45.00
53053;DHT22;38934;52.690;6.184;2023-06-14T09:08:57;30.00;44.90
53053;DHT22;38934;52.690;6.184;2023-06-14T09:11:22;30.00;45.20
53053;DHT22;38934;52.690;6.184;2023-06-14T09:13:49;29.70;45.00
53053;DHT22;38934;52.690;6.184;2023-06-14T09:16:15;29.90;44.90
53053;DHT22;38934;52.690;6.184;2023-06-14T09:18:45;29.70;45.00
53053;DHT22;38934;52.690;6.184;2023-06-14T09:21:14;29.90;45.40
53053;DHT22;38934;52.690;6.184;2023-06-14T09:23:42;29.80;44.90
53053;DHT22;38934;52.690;6.184;2023-06-14T09:26:16;29.90;45.20
53053;DHT22;38934;52.690;6.184;2023-06-14T09:31:13;29.70;45.00
53053;DHT22;38934;52.690;6.184;2023-06-14T09:33:49;29.90;45.50
53053;DHT22;38934;52.690;6.184;2023-06-14T09:36:22;30.20;45.70
53053;DHT22;38934;52.690;6.184;2023-06-14T09:38:58;30.40;44.90
53053;DHT22;38934;52.690;6.184;2023-06-14T09:41:35;30.20;44.00
53053;DHT22;38934;52.690;6.184;2023-06-14T09:44:02;30.00;43.90
53053;DHT22;38934;52.690;6.184;2023-06-14T09:46:29;29.60;44.10
53053;DHT22;38934;52.690;6.184;2023-06-14T09:48:55;29.50;45.30
53053;DHT22;38934;52.690;6.184;2023-06-14T09:51:23;29.40;44.70
53053;DHT22;38934;52.690;6.184;2023-06-14T09:53:49;29.60;44.90
53053;DHT22;38934;52.690;6.184;2023-06-14T09:56:40;29.50;45.10
53053;DHT22;38934;52.690;6.184;2023-06-14T09:59:09;29.50;44.90
53053;DHT22;38934;52.690;6.184;2023-06-14T10:01:37;29.50;44.80
53053;DHT22;38934;52.690;6.184;2023-06-14T10:04:05;29.60;44.60
53053;DHT22;38934;52.690;6.184;2023-06-14T10:06:32;29.30;43.70
53053;DHT22;38934;52.690;6.184;2023-06-14T10:09:04;29.20;44.30
53053;DHT22;38934;52.690;6.184;2023-06-14T10:11:31;29.10;44.10
53053;DHT22;38934;52.690;6.184;2023-06-14T10:13:58;28.90;44.10
53053;DHT22;38934;52.690;6.184;2023-06-14T10:16:50;28.80;44.60
53053;DHT22;38934;52.690;6.184;2023-06-14T10:19:25;28.80;45.10
53053;DHT22;38934;52.690;6.184;2023-06-14T10:22:11;28.80;44.80
53053;DHT22;38934;52.690;6.184;2023-06-14T10:24:42;28.30;43.60
53053;DHT22;38934;52.690;6.184;2023-06-14T10:27:08;27.90;44.50
53053;DHT22;38934;52.690;6.184;2023-06-14T10:32:18;28.00;45.00
53053;DHT22;38934;52.690;6.184;2023-06-14T10:34:44;27.90;44.90
53053;DHT22;38934;52.690;6.184;2023-06-14T10:37:13;27.70;45.10
53053;DHT22;38934;52.690;6.184;2023-06-14T10:39:46;27.50;45.50
53053;DHT22;38934;52.690;6.184;2023-06-14T10:42:12;27.30;45.70
53053;DHT22;38934;52.690;6.184;2023-06-14T10:44:38;27.40;46.10
53053;DHT22;38934;52.690;6.184;2023-06-14T10:47:10;27.60;46.00
53053;DHT22;38934;52.690;6.184;2023-06-14T10:49:48;27.60;45.20
53053;DHT22;38934;52.690;6.184;2023-06-14T10:52:16;27.70;44.80
53053;DHT22;38934;52.690;6.184;2023-06-14T10:55:01;27.60;44.90
53053;DHT22;38934;52.690;6.184;2023-06-14T10:57:27;27.60;44.10
53053;DHT22;38934;52.690;6.184;2023-06-14T10:59:53;27.30;44.70
53053;DHT22;38934;52.690;6.184;2023-06-14T11:04:52;27.30;44.60
53053;DHT22;38934;52.690;6.184;2023-06-14T11:10:13;27.30;44.50
53053;DHT22;38934;52.690;6.184;2023-06-14T11:12:48;27.30;44.70
53053;DHT22;38934;52.690;6.184;2023-06-14T11:15:14;27.20;44.70
53053;DHT22;38934;52.690;6.184;2023-06-14T11:17:50;27.10;44.80
53053;DHT22;38934;52.690;6.184;2023-06-14T11:20:18;27.20;44.60
53053;DHT22;38934;52.690;6.184;2023-06-14T11:22:45;27.10;44.20
53053;DHT22;38934;52.690;6.184;2023-06-14T11:25:14;27.00;43.90
53053;DHT22;38934;52.690;6.184;2023-06-14T11:27:43;27.00;44.60
53053;DHT22;38934;52.690;6.184;2023-06-14T11:30:09;26.90;44.80
53053;DHT22;38934;52.690;6.184;2023-06-14T11:32:36;26.80;44.20
53053;DHT22;38934;52.690;6.184;2023-06-14T11:35:03;26.90;44.80
53053;DHT22;38934;52.690;6.184;2023-06-14T11:37:30;26.90;44.00
53053;DHT22;38934;52.690;6.184;2023-06-14T11:40:02;26.80;44.20
53053;DHT22;38934;52.690;6.184;2023-06-14T11:42:34;26.80;45.10
53053;DHT22;38934;52.690;6.184;2023-06-14T11:45:00;26.80;44.50
53053;DHT22;38934;52.690;6.184;2023-06-14T11:47:34;26.90;44.60
53053;DHT22;38934;52.690;6.184;2023-06-14T11:50:00;26.70;44.60
53053;DHT22;38934;52.690;6.184;2023-06-14T11:52:26;26.70;43.80
53053;DHT22;38934;52.690;6.184;2023-06-14T11:54:52;26.60;43.80
53053;DHT22;38934;52.690;6.184;2023-06-14T11:57:19;26.60;43.70
53053;DHT22;38934;52.690;6.184;2023-06-14T11:59:45;26.40;43.70
53053;DHT22;38934;52.690;6.184;2023-06-14T12:02:18;26.30;44.40
53053;DHT22;38934;52.690;6.184;2023-06-14T12:04:47;26.30;44.20
53053;DHT22;38934;52.690;6.184;2023-06-14T12:07:17;26.30;44.20
53053;DHT22;38934;52.690;6.184;2023-06-14T12:12:24;26.40;44.30
53053;DHT22;38934;52.690;6.184;2023-06-14T12:14:53;26.40;44.60
53053;DHT22;38934;52.690;6.184;2023-06-14T12:17:19;26.50;45.20
53053;DHT22;38934;52.690;6.184;2023-06-14T12:19:46;26.50;44.60
53053;DHT22;38934;52.690;6.184;2023-06-14T12:22:15;26.70;45.10
53053;DHT22;38934;52.690;6.184;2023-06-14T12:24:44;26.90;45.00
53053;DHT22;38934;52.690;6.184;2023-06-14T12:27:10;26.80;45.20
53053;DHT22;38934;52.690;6.184;2023-06-14T12:29:41;26.80;45.40
53053;DHT22;38934;52.690;6.184;2023-06-14T12:32:09;26.80;45.60
53053;DHT22;38934;52.690;6.184;2023-06-14T12:34:35;26.80;44.90
53053;DHT22;38934;52.690;6.184;2023-06-14T12:37:01;26.60;45.40
53053;DHT22;38934;52.690;6.184;2023-06-14T12:39:29;26.50;45.60
53053;DHT22;38934;52.690;6.184;2023-06-14T12:41:57;26.60;46.10
53053;DHT22;38934;52.690;6.184;2023-06-14T12:44:22;26.50;45.90
53053;DHT22;38934;52.690;6.184;2023-06-14T12:46:48;26.60;45.90
53053;DHT22;38934;52.690;6.184;2023-06-14T12:49:16;26.60;45.60
53053;DHT22;38934;52.690;6.184;2023-06-14T12:51:42;26.60;45.90
53053;DHT22;38934;52.690;6.184;2023-06-14T12:54:08;26.70;46.20
53053;DHT22;38934;52.690;6.184;2023-06-14T12:56:34;26.70;45.60
53053;DHT22;38934;52.690;6.184;2023-06-14T12:59:00;26.60;45.80
53053;DHT22;38934;52.690;6.184;2023-06-14T13:01:26;26.60;45.90
53053;DHT22;38934;52.690;6.184;2023-06-14T13:03:51;26.60;46.10
53053;DHT22;38934;52.690;6.184;2023-06-14T13:06:21;26.60;46.10
53053;DHT22;38934;52.690;6.184;2023-06-14T13:08:47;26.60;46.30
53053;DHT22;38934;52.690;6.184;2023-06-14T13:11:13;26.70;46.20
53053;DHT22;38934;52.690;6.184;2023-06-14T13:13:39;26.70;46.40
53053;DHT22;38934;52.690;6.184;2023-06-14T13:16:04;26.70;46.60
53053;DHT22;38934;52.690;6.184;2023-06-14T13:18:30;26.80;46.90
53053;DHT22;38934;52.690;6.184;2023-06-14T13:20:56;26.90;47.60
53053;DHT22;38934;52.690;6.184;2023-06-14T13:23:21;27.10;47.60
53053;DHT22;38934;52.690;6.184;2023-06-14T13:25:47;27.10;46.90
53053;DHT22;38934;52.690;6.184;2023-06-14T13:28:15;27.00;47.00
53053;DHT22;38934;52.690;6.184;2023-06-14T13:30:40;27.00;47.40
53053;DHT22;38934;52.690;6.184;2023-06-14T13:33:06;27.00;46.70
53053;DHT22;38934;52.690;6.184;2023-06-14T13:35:32;27.10;46.60
53053;DHT22;38934;52.690;6.184;2023-06-14T13:37:57;27.10;46.20
53053;DHT22;38934;52.690;6.184;2023-06-14T13:40:23;27.10;46.30
53053;DHT22;38934;52.690;6.184;2023-06-14T13:42:48;27.30;46.80
53053;DHT22;38934;52.690;6.184;2023-06-14T13:45:15;27.30;46.60
53053;DHT22;38934;52.690;6.184;2023-06-14T13:47:41;27.30;46.10
53053;DHT22;38934;52.690;6.184;2023-06-14T13:50:07;27.10;45.90
53053;DHT22;38934;52.690;6.184;2023-06-14T13:52:32;27.00;46.40
53053;DHT22;38934;52.690;6.184;2023-06-14T13:54:58;26.90;46.50
53053;DHT22;38934;52.690;6.184;2023-06-14T13:57:25;26.90;46.80
53053;DHT22;38934;52.690;6.184;2023-06-14T13:59:51;26.90;46.90
53053;DHT22;38934;52.690;6.184;2023-06-14T14:02:18;27.00;47.00
53053;DHT22;38934;52.690;6.184;2023-06-14T14:04:44;27.00;46.30
53053;DHT22;38934;52.690;6.184;2023-06-14T14:07:09;27.00;46.80
53053;DHT22;38934;52.690;6.184;2023-06-14T14:09:35;27.00;46.80
53053;DHT22;38934;52.690;6.184;2023-06-14T14:12:01;27.00;46.80
53053;DHT22;38934;52.690;6.184;2023-06-14T14:14:28;27.10;47.10
53053;DHT22;38934;52.690;6.184;2023-06-14T14:16:53;27.10;47.10
53053;DHT22;38934;52.690;6.184;2023-06-14T14:19:21;27.20;47.10
53053;DHT22;38934;52.690;6.184;2023-06-14T14:21:47;27.20;46.30
53053;DHT22;38934;52.690;6.184;2023-06-14T14:24:13;27.20;46.70
53053;DHT22;38934;52.690;6.184;2023-06-14T14:26:39;27.20;47.20
53053;DHT22;38934;52.690;6.184;2023-06-14T14:29:05;27.30;47.20
53053;DHT22;38934;52.690;6.184;2023-06-14T14:31:31;27.30;46.60
53053;DHT22;38934;52.690;6.184;2023-06-14T14:33:57;27.30;46.80
53053;DHT22;38934;52.690;6.184;2023-06-14T14:36:22;27.40;47.20
53053;DHT22;38934;52.690;6.184;2023-06-14T14:38:48;27.50;46.70
53053;DHT22;38934;52.690;6.184;2023-06-14T14:41:14;27.40;46.60
53053;DHT22;38934;52.690;6.184;2023-06-14T14:43:39;27.50;47.70
53053;DHT22;38934;52.690;6.184;2023-06-14T14:46:05;27.60;47.60
53053;DHT22;38934;52.690;6.184;2023-06-14T14:48:31;27.70;47.10
53053;DHT22;38934;52.690;6.184;2023-06-14T14:50:57;27.60;46.00
53053;DHT22;38934;52.690;6.184;2023-06-14T14:53:22;27.60;46.80
53053;DHT22;38934;52.690;6.184;2023-06-14T14:55:48;27.60;46.60
53053;DHT22;38934;52.690;6.184;2023-06-14T14:58:14;27.50;46.40
53053;DHT22;38934;52.690;6.184;2023-06-14T15:00:44;27.50;46.80
53053;DHT22;38934;52.690;6.184;2023-06-14T15:03:10;27.40;46.10
53053;DHT22;38934;52.690;6.184;2023-06-14T15:05:36;27.40;46.50
53053;DHT22;38934;52.690;6.184;2023-06-14T15:08:03;27.50;46.80
53053;DHT22;38934;52.690;6.184;2023-06-14T15:10:29;27.50;46.30
53053;DHT22;38934;52.690;6.184;2023-06-14T15:12:54;27.50;45.40
53053;DHT22;38934;52.690;6.184;2023-06-14T15:15:21;27.40;45.80
53053;DHT22;38934;52.690;6.184;2023-06-14T15:17:47;27.30;46.50
53053;DHT22;38934;52.690;6.184;2023-06-14T15:20:12;27.50;46.90
53053;DHT22;38934;52.690;6.184;2023-06-14T15:22:39;27.50;46.10
53053;DHT22;38934;52.690;6.184;2023-06-14T15:25:05;27.70;46.70
53053;DHT22;38934;52.690;6.184;2023-06-14T15:27:31;27.80;46.50
53053;DHT22;38934;52.690;6.184;2023-06-14T15:29:56;27.80;46.00
53053;DHT22;38934;52.690;6.184;2023-06-14T15:32:22;27.90;45.90
53053;DHT22;38934;52.690;6.184;2023-06-14T15:34:48;27.60;45.80
53053;DHT22;38934;52.690;6.184;2023-06-14T15:37:13;27.60;46.40
53053;DHT22;38934;52.690;6.184;2023-06-14T15:39:39;27.70;46.80
53053;DHT22;38934;52.690;6.184;2023-06-14T15:42:05;27.60;46.40
53053;DHT22;38934;52.690;6.184;2023-06-14T15:44:33;27.80;46.40
53053;DHT22;38934;52.690;6.184;2023-06-14T15:46:59;27.80;46.10
53053;DHT22;38934;52.690;6.184;2023-06-14T15:49:24;27.80;46.00